sensor_id;sensor_type;location;lat;lon;timestamp;pressure;altitude;pressure_sealevel;temperature;humidity
63115;BME280;49208;50.874;6.466;2023-02-16T07:02:10;101265.16;;;1.00;100.00
63115;BME280;49208;50.874;6.466;2023-02-16T07:04:35;101261.75;;;1.08;100.00
63115;BME280;49208;50.874;6.466;2023-02-16T07:07:01;101258.41;;;1.18;100.00
63115;BME280;49208;50.874;6.466;2023-02-16T07:09:26;101267.34;;;1.29;100.00
63115;BME280;49208;50.874;6.466;2023-02-16T07:11:52;101269.25;;;1.39;100.00
63115;BME280;49208;50.874;6.466;2023-02-16T07:14:18;101262.41;;;1.48;100.00
63115;BME280;49208;50.874;6.466;2023-02-16T07:16:43;101267.72;;;1.55;100.00
63115;BME280;49208;50.874;6.466;2023-02-16T07:19:09;101257.31;;;1.61;100.00
63115;BME280;49208;50.874;6.466;2023-02-16T07:21:34;101261.78;;;1.67;100.00
63115;BME280;49208;50.874;6.466;2023-02-16T07:24:00;101258.31;;;1.70;100.00
63115;BME280;49208;50.874;6.466;2023-02-16T07:26:26;101260.19;;;1.77;100.00
63115;BME280;49208;50.874;6.466;2023-02-16T07:28:52;101260.25;;;1.83;100.00
63115;BME280;49208;50.874;6.466;2023-02-16T07:31:17;101255.94;;;1.88;100.00
63115;BME280;49208;50.874;6.466;2023-02-16T07:33:43;101263.00;;;1.92;100.00
63115;BME280;49208;50.874;6.466;2023-02-16T07:36:10;101255.16;;;1.97;100.00
63115;BME280;49208;50.874;6.466;2023-02-16T07:38:36;101261.41;;;2.05;100.00
63115;BME280;49208;50.874;6.466;2023-02-16T07:41:02;101260.66;;;2.14;100.00
63115;BME280;49208;50.874;6.466;2023-02-16T07:43:28;101260.72;;;2.21;100.00
63115;BME280;49208;50.874;6.466;2023-02-16T07:45:53;101253.78;;;2.27;100.00
63115;BME280;49208;50.874;6.466;2023-02-16T07:48:19;101261.75;;;2.33;100.00
63115;BME280;49208;50.874;6.466;2023-02-16T07:50:44;101247.81;;;2.40;100.00
63115;BME280;49208;50.874;6.466;2023-02-16T07:53:09;101253.16;;;2.49;100.00
63115;BME280;49208;50.874;6.466;2023-02-16T07:55:43;101253.25;;;2.58;100.00
63115;BME280;49208;50.874;6.466;2023-02-16T07:58:09;101256.84;;;2.70;100.00
63115;BME280;49208;50.874;6.466;2023-02-16T08:00:34;101259.59;;;2.80;100.00
63115;BME280;49208;50.874;6.466;2023-02-16T08:03:00;101264.97;;;2.91;100.00
63115;BME280;49208;50.874;6.466;2023-02-16T08:05:26;101264.16;;;3.00;100.00
63115;BME280;49208;50.874;6.466;2023-02-16T08:07:51;101257.22;;;3.10;100.00
63115;BME280;49208;50.874;6.466;2023-02-16T08:10:17;101258.16;;;3.19;100.00
63115;BME280;49208;50.874;6.466;2023-02-16T08:12:42;101265.28;;;3.33;100.00
63115;BME280;49208;50.874;6.466;2023-02-16T08:15:08;101256.63;;;3.51;100.00
63115;BME280;49208;50.874;6.466;2023-02-16T08:17:34;101256.75;;;3.71;100.00
63115;BME280;49208;50.874;6.466;2023-02-16T08:20:00;101248.09;;;3.90;100.00
63115;BME280;49208;50.874;6.466;2023-02-16T08:22:25;101262.22;;;4.08;100.00
63115;BME280;49208;50.874;6.466;2023-02-16T08:24:50;101250.84;;;4.22;100.00
63115;BME280;49208;50.874;6.466;2023-02-16T08:27:16;101252.66;;;4.34;100.00
63115;BME280;49208;50.874;6.466;2023-02-16T08:29:41;101263.22;;;4.48;100.00
63115;BME280;49208;50.874;6.466;2023-02-16T08:32:10;101258.00;;;4.63;100.00
63115;BME280;49208;50.874;6.466;2023-02-16T08:34:37;101260.66;;;5.10;100.00
63115;BME280;49208;50.874;6.466;2023-02-16T08:37:03;101256.16;;;5.85;100.00
63115;BME280;49208;50.874;6.466;2023-02-16T08:39:30;101255.94;;;6.44;97.14
63115;BME280;49208;50.874;6.466;2023-02-16T08:41:57;101257.59;;;6.59;93.19
63115;BME280;49208;50.874;6.466;2023-02-16T08:44:23;101254.94;;;6.63;93.51
63115;BME280;49208;50.874;6.466;2023-02-16T08:46:51;101254.94;;;6.66;93.85
63115;BME280;49208;50.874;6.466;2023-02-16T08:49:18;101263.66;;;6.76;93.61
63115;BME280;49208;50.874;6.466;2023-02-16T08:51:48;101257.22;;;7.11;92.14
63115;BME280;49208;50.874;6.466;2023-02-16T08:54:23;101257.47;;;7.78;87.34
63115;BME280;49208;50.874;6.466;2023-02-16T08:56:57;101253.59;;;8.06;83.90
63115;BME280;49208;50.874;6.466;2023-02-16T08:59:24;101263.28;;;8.09;84.70
63115;BME280;49208;50.874;6.466;2023-02-16T09:01:50;101260.81;;;7.95;83.89
63115;BME280;49208;50.874;6.466;2023-02-16T09:04:17;101261.75;;;7.91;85.53
63115;BME280;49208;50.874;6.466;2023-02-16T09:06:44;101259.91;;;7.99;86.71
63115;BME280;49208;50.874;6.466;2023-02-16T09:09:11;101250.59;;;8.34;87.10
63115;BME280;49208;50.874;6.466;2023-02-16T09:11:37;101258.38;;;9.60;87.48
63115;BME280;49208;50.874;6.466;2023-02-16T09:14:03;101242.88;;;10.67;77.71
63115;BME280;49208;50.874;6.466;2023-02-16T09:16:29;101246.06;;;11.19;75.99
63115;BME280;49208;50.874;6.466;2023-02-16T09:19:01;101244.53;;;11.09;71.10
63115;BME280;49208;50.874;6.466;2023-02-16T09:21:28;101240.78;;;10.80;71.78
63115;BME280;49208;50.874;6.466;2023-02-16T09:23:58;101248.31;;;10.63;71.92
63115;BME280;49208;50.874;6.466;2023-02-16T09:26:25;101242.94;;;10.24;72.67
63115;BME280;49208;50.874;6.466;2023-02-16T09:28:51;101243.44;;;9.98;75.00
63115;BME280;49208;50.874;6.466;2023-02-16T09:31:28;101244.06;;;9.67;77.23
63115;BME280;49208;50.874;6.466;2023-02-16T09:34:27;101257.38;;;9.17;78.52
63115;BME280;49208;50.874;6.466;2023-02-16T09:36:53;101261.75;;;8.61;79.06
63115;BME280;49208;50.874;6.466;2023-02-16T09:39:19;101257.66;;;8.35;80.59
63115;BME280;49208;50.874;6.466;2023-02-16T09:41:56;101268.66;;;8.03;81.52
63115;BME280;49208;50.874;6.466;2023-02-16T09:46:58;101273.59;;;7.58;83.80
63115;BME280;49208;50.874;6.466;2023-02-16T09:49:32;101282.59;;;7.38;84.93
63115;BME280;49208;50.874;6.466;2023-02-16T09:52:08;101286.25;;;7.25;86.22
63115;BME280;49208;50.874;6.466;2023-02-16T09:54:46;101290.72;;;7.15;87.43
63115;BME280;49208;50.874;6.466;2023-02-16T09:57:36;101290.78;;;7.07;88.55
63115;BME280;49208;50.874;6.466;2023-02-16T10:00:25;101303.19;;;7.04;88.84
63115;BME280;49208;50.874;6.466;2023-02-16T10:05:46;101304.13;;;6.95;89.31
63115;BME280;49208;50.874;6.466;2023-02-16T10:10:49;101319.16;;;6.93;90.26
63115;BME280;49208;50.874;6.466;2023-02-16T10:15:54;101311.22;;;6.92;91.20
63115;BME280;49208;50.874;6.466;2023-02-16T10:18:34;101309.44;;;6.92;92.89
63115;BME280;49208;50.874;6.466;2023-02-16T10:21:05;101307.66;;;6.96;93.79
63115;BME280;49208;50.874;6.466;2023-02-16T10:23:51;101309.34;;;7.06;94.33
63115;BME280;49208;50.874;6.466;2023-02-16T10:26:24;101305.75;;;7.16;95.22
63115;BME280;49208;50.874;6.466;2023-02-16T10:28:54;101305.59;;;7.32;95.31
63115;BME280;49208;50.874;6.466;2023-02-16T10:40:13;101304.44;;;8.44;93.87
63115;BME280;49208;50.874;6.466;2023-02-16T10:45:50;101304.75;;;8.86;91.80
63115;BME280;49208;50.874;6.466;2023-02-16T10:48:16;101301.09;;;8.95;90.67
63115;BME280;49208;50.874;6.466;2023-02-16T10:50:47;101302.91;;;8.93;89.52
63115;BME280;49208;50.874;6.466;2023-02-16T10:53:20;101302.94;;;8.89;88.67
63115;BME280;49208;50.874;6.466;2023-02-16T10:55:48;101294.16;;;8.84;88.58
63115;BME280;49208;50.874;6.466;2023-02-16T10:58:23;101292.47;;;8.80;88.40
63115;BME280;49208;50.874;6.466;2023-02-16T11:01:02;101289.81;;;8.79;87.85
63115;BME280;49208;50.874;6.466;2023-02-16T11:03:39;101288.03;;;8.79;87.63
63115;BME280;49208;50.874;6.466;2023-02-16T11:06:35;101274.75;;;8.81;86.96
63115;BME280;49208;50.874;6.466;2023-02-16T11:09:01;101282.63;;;8.85;86.98
63115;BME280;49208;50.874;6.466;2023-02-16T11:11:34;101271.06;;;8.91;86.65
63115;BME280;49208;50.874;6.466;2023-02-16T11:14:06;101278.00;;;8.98;87.08
63115;BME280;49208;50.874;6.466;2023-02-16T11:16:33;101273.44;;;9.08;87.00
63115;BME280;49208;50.874;6.466;2023-02-16T11:24:13;101265.00;;;9.36;85.05
63115;BME280;49208;50.874;6.466;2023-02-16T11:26:58;101260.50;;;9.41;85.55
63115;BME280;49208;50.874;6.466;2023-02-16T11:29:23;101255.09;;;9.44;84.73
63115;BME280;49208;50.874;6.466;2023-02-16T11:31:48;101261.28;;;9.46;84.77
63115;BME280;49208;50.874;6.466;2023-02-16T11:36:48;101248.88;;;9.46;84.34
63115;BME280;49208;50.874;6.466;2023-02-16T11:39:19;101247.19;;;9.42;84.41
63115;BME280;49208;50.874;6.466;2023-02-16T11:41:50;101241.06;;;9.37;84.81
63115;BME280;49208;50.874;6.466;2023-02-16T11:46:51;101244.81;;;9.25;85.33
63115;BME280;49208;50.874;6.466;2023-02-16T11:49:28;101244.03;;;9.19;85.25
63115;BME280;49208;50.874;6.466;2023-02-16T11:51:55;101246.75;;;9.17;85.88
63115;BME280;49208;50.874;6.466;2023-02-16T11:54:21;101238.78;;;9.17;85.73
63115;BME280;49208;50.874;6.466;2023-02-16T11:57:04;101239.69;;;9.15;86.04
63115;BME280;49208;50.874;6.466;2023-02-16T11:59:34;101230.81;;;9.16;86.27
63115;BME280;49208;50.874;6.466;2023-02-16T12:02:21;101238.78;;;9.16;86.80
63115;BME280;49208;50.874;6.466;2023-02-16T12:22:14;101235.19;;;9.20;85.44
63115;BME280;49208;50.874;6.466;2023-02-16T12:27:36;101229.81;;;9.21;85.98
63115;BME280;49208;50.874;6.466;2023-02-16T12:30:22;101217.38;;;9.23;86.74
63115;BME280;49208;50.874;6.466;2023-02-16T12:35:59;101198.56;;;9.36;87.25
63115;BME280;49208;50.874;6.466;2023-02-16T12:41:57;101190.13;;;9.62;87.52
63115;BME280;49208;50.874;6.466;2023-02-16T12:44:33;101185.41;;;9.76;87.16
63115;BME280;49208;50.874;6.466;2023-02-16T12:47:04;101192.19;;;9.91;86.14
63115;BME280;49208;50.874;6.466;2023-02-16T12:49:50;101194.59;;;10.02;85.42
63115;BME280;49208;50.874;6.466;2023-02-16T12:52:29;101189.97;;;10.11;85.19
63115;BME280;49208;50.874;6.466;2023-02-16T12:55:47;101182.75;;;10.17;84.33
63115;BME280;49208;50.874;6.466;2023-02-16T12:57:53;101186.22;;;10.20;84.71
63115;BME280;49208;50.874;6.466;2023-02-16T13:05:39;101180.78;;;10.26;83.19
63115;BME280;49208;50.874;6.466;2023-02-16T13:08:16;101189.50;;;10.35;82.05
63115;BME280;49208;50.874;6.466;2023-02-16T13:11:03;101181.25;;;10.45;81.18
63115;BME280;49208;50.874;6.466;2023-02-16T13:13:32;101176.72;;;10.50;81.29
63115;BME280;49208;50.874;6.466;2023-02-16T13:18:43;101167.63;;;10.59;81.53
63115;BME280;49208;50.874;6.466;2023-02-16T13:34:51;101144.31;;;11.03;79.93
63115;BME280;49208;50.874;6.466;2023-02-16T13:45:19;101119.78;;;11.25;77.52
63115;BME280;49208;50.874;6.466;2023-02-16T13:47:47;101113.31;;;11.33;77.04
63115;BME280;49208;50.874;6.466;2023-02-16T13:50:32;101113.88;;;11.45;75.86
63115;BME280;49208;50.874;6.466;2023-02-16T13:53:16;101104.69;;;11.55;74.46
63115;BME280;49208;50.874;6.466;2023-02-16T13:55:43;101102.88;;;11.57;73.94
63115;BME280;49208;50.874;6.466;2023-02-16T14:05:45;101100.34;;;11.52;71.83
63115;BME280;49208;50.874;6.466;2023-02-16T14:13:30;101091.19;;;11.61;71.02
63115;BME280;49208;50.874;6.466;2023-02-16T14:16:10;101092.06;;;11.62;70.78
63115;BME280;49208;50.874;6.466;2023-02-16T14:18:45;101093.81;;;11.63;71.13
63115;BME280;49208;50.874;6.466;2023-02-16T14:21:31;101093.97;;;11.58;70.89
63115;BME280;49208;50.874;6.466;2023-02-16T14:23:59;101089.66;;;11.52;70.12
63115;BME280;49208;50.874;6.466;2023-02-16T14:26:25;101096.03;;;11.47;70.23
63115;BME280;49208;50.874;6.466;2023-02-16T14:29:17;101092.59;;;11.43;70.73
63115;BME280;49208;50.874;6.466;2023-02-16T14:31:56;101087.47;;;11.37;69.54
63115;BME280;49208;50.874;6.466;2023-02-16T14:34:31;101079.47;;;11.37;68.33
63115;BME280;49208;50.874;6.466;2023-02-16T14:39:46;101080.25;;;11.39;68.74
63115;BME280;49208;50.874;6.466;2023-02-16T14:42:17;101076.59;;;11.43;67.77
63115;BME280;49208;50.874;6.466;2023-02-16T14:45:21;101073.16;;;11.40;68.85
63115;BME280;49208;50.874;6.466;2023-02-16T14:50:54;101071.66;;;11.31;68.52
63115;BME280;49208;50.874;6.466;2023-02-16T14:56:25;101074.38;;;11.28;69.25
63115;BME280;49208;50.874;6.466;2023-02-16T14:59:00;101074.47;;;11.25;68.57
63115;BME280;49208;50.874;6.466;2023-02-16T15:01:27;101071.94;;;11.20;69.29
63115;BME280;49208;50.874;6.466;2023-02-16T15:03:55;101074.56;;;11.22;69.47
63115;BME280;49208;50.874;6.466;2023-02-16T15:06:32;101060.31;;;11.23;69.89
63115;BME280;49208;50.874;6.466;2023-02-16T15:09:03;101058.56;;;11.22;70.20
63115;BME280;49208;50.874;6.466;2023-02-16T15:11:33;101050.69;;;11.19;70.63
63115;BME280;49208;50.874;6.466;2023-02-16T15:14:09;101042.78;;;11.14;71.66
63115;BME280;49208;50.874;6.466;2023-02-16T15:16:38;101049.00;;;11.15;72.02
63115;BME280;49208;50.874;6.466;2023-02-16T15:19:13;101038.28;;;11.16;72.28
63115;BME280;49208;50.874;6.466;2023-02-16T15:21:40;101044.50;;;11.17;71.90
63115;BME280;49208;50.874;6.466;2023-02-16T15:24:20;101045.38;;;11.17;71.81
63115;BME280;49208;50.874;6.466;2023-02-16T15:26:52;101036.53;;;11.17;71.63
63115;BME280;49208;50.874;6.466;2023-02-16T15:29:25;101034.75;;;11.16;71.83
63115;BME280;49208;50.874;6.466;2023-02-16T15:31:51;101035.63;;;11.16;72.51
63115;BME280;49208;50.874;6.466;2023-02-16T15:34:29;101034.94;;;11.09;71.02
63115;BME280;49208;50.874;6.466;2023-02-16T15:36:58;101033.38;;;11.02;70.94
63115;BME280;49208;50.874;6.466;2023-02-16T15:39:28;101035.19;;;11.00;71.17
63115;BME280;49208;50.874;6.466;2023-02-16T15:42:10;101033.59;;;10.93;71.24
63115;BME280;49208;50.874;6.466;2023-02-16T15:44:40;101036.41;;;10.88;71.41
63115;BME280;49208;50.874;6.466;2023-02-16T15:47:15;101042.94;;;10.77;72.10
63115;BME280;49208;50.874;6.466;2023-02-16T15:49:42;101047.66;;;10.67;72.51
63115;BME280;49208;50.874;6.466;2023-02-16T15:52:13;101043.47;;;10.57;73.36
63115;BME280;49208;50.874;6.466;2023-02-16T15:54:40;101045.47;;;10.47;74.13
63115;BME280;49208;50.874;6.466;2023-02-16T15:57:22;101054.63;;;10.37;74.12
63115;BME280;49208;50.874;6.466;2023-02-16T16:00:17;101050.41;;;10.26;75.05
63115;BME280;49208;50.874;6.466;2023-02-16T16:02:48;101048.00;;;10.16;75.89
63115;BME280;49208;50.874;6.466;2023-02-16T16:05:28;101045.59;;;10.05;76.64
63115;BME280;49208;50.874;6.466;2023-02-16T16:07:57;101046.66;;;9.98;76.78
63115;BME280;49208;50.874;6.466;2023-02-16T16:10:29;101051.25;;;9.91;77.51
63115;BME280;49208;50.874;6.466;2023-02-16T16:13:05;101044.22;;;9.88;76.93
63115;BME280;49208;50.874;6.466;2023-02-16T16:15:36;101046.00;;;9.88;77.21
63115;BME280;49208;50.874;6.466;2023-02-16T16:18:02;101045.19;;;9.84;78.04
63115;BME280;49208;50.874;6.466;2023-02-16T16:20:37;101044.38;;;9.81;78.69
63115;BME280;49208;50.874;6.466;2023-02-16T16:23:23;101045.34;;;9.78;79.59
63115;BME280;49208;50.874;6.466;2023-02-16T16:25:49;101049.78;;;9.78;79.35
63115;BME280;49208;50.874;6.466;2023-02-16T16:31:11;101052.44;;;9.78;79.58
63115;BME280;49208;50.874;6.466;2023-02-16T16:34:04;101050.69;;;9.75;79.83
63115;BME280;49208;50.874;6.466;2023-02-16T16:41:43;101050.09;;;9.64;80.54
63115;BME280;49208;50.874;6.466;2023-02-16T16:44:37;101036.03;;;9.59;80.78
63115;BME280;49208;50.874;6.466;2023-02-16T16:52:48;101053.03;;;9.50;81.78
63115;BME280;49208;50.874;6.466;2023-02-16T16:57:54;101054.91;;;9.46;82.66
63115;BME280;49208;50.874;6.466;2023-02-16T17:00:21;101048.75;;;9.44;82.66
63115;BME280;49208;50.874;6.466;2023-02-16T17:02:47;101043.47;;;9.41;83.05
63115;BME280;49208;50.874;6.466;2023-02-16T17:05:13;101047.94;;;9.39;83.01
63115;BME280;49208;50.874;6.466;2023-02-16T17:07:38;101043.56;;;9.38;83.35
63115;BME280;49208;50.874;6.466;2023-02-16T17:10:04;101040.94;;;9.35;83.81
63115;BME280;49208;50.874;6.466;2023-02-16T17:12:30;101034.81;;;9.31;84.35
63115;BME280;49208;50.874;6.466;2023-02-16T17:14:55;101039.22;;;9.34;84.06
63115;BME280;49208;50.874;6.466;2023-02-16T17:17:21;101040.00;;;9.38;84.15
63115;BME280;49208;50.874;6.466;2023-02-16T17:19:46;101044.44;;;9.37;84.36
63115;BME280;49208;50.874;6.466;2023-02-16T17:22:16;101038.31;;;9.34;84.64
63115;BME280;49208;50.874;6.466;2023-02-16T17:24:42;101041.91;;;9.33;84.97
63115;BME280;49208;50.874;6.466;2023-02-16T17:27:08;101046.28;;;9.34;85.10
63115;BME280;49208;50.874;6.466;2023-02-16T17:29:34;101040.13;;;9.31;85.27
63115;BME280;49208;50.874;6.466;2023-02-16T17:32:00;101041.09;;;9.27;85.69
63115;BME280;49208;50.874;6.466;2023-02-16T17:34:25;101048.31;;;9.22;85.96
63115;BME280;49208;50.874;6.466;2023-02-16T17:36:58;101045.66;;;9.22;85.86
63115;BME280;49208;50.874;6.466;2023-02-16T17:39:24;101048.19;;;9.27;85.47
63115;BME280;49208;50.874;6.466;2023-02-16T17:41:50;101045.53;;;9.27;85.55
63115;BME280;49208;50.874;6.466;2023-02-16T17:44:16;101042.00;;;9.28;85.26
63115;BME280;49208;50.874;6.466;2023-02-16T17:46:42;101040.09;;;9.33;84.39
63115;BME280;49208;50.874;6.466;2023-02-16T17:49:10;101046.97;;;9.43;82.92
63115;BME280;49208;50.874;6.466;2023-02-16T17:51:36;101036.09;;;9.54;82.35
63115;BME280;49208;50.874;6.466;2023-02-16T17:54:05;101036.94;;;9.56;82.48
63115;BME280;49208;50.874;6.466;2023-02-16T17:56:35;101048.53;;;9.54;82.01
63115;BME280;49208;50.874;6.466;2023-02-16T17:59:01;101044.88;;;9.59;80.84
63115;BME280;49208;50.874;6.466;2023-02-16T18:01:30;101038.59;;;9.62;80.02
63115;BME280;49208;50.874;6.466;2023-02-16T18:03:57;101046.47;;;9.66;79.85
63115;BME280;49208;50.874;6.466;2023-02-16T18:06:23;101067.75;;;9.65;79.82
63115;BME280;49208;50.874;6.466;2023-02-16T18:08:49;101066.91;;;9.63;80.28
63115;BME280;49208;50.874;6.466;2023-02-16T18:11:15;101069.56;;;9.64;80.30
63115;BME280;49208;50.874;6.466;2023-02-16T18:13:41;101059.75;;;9.66;80.29
63115;BME280;49208;50.874;6.466;2023-02-16T18:16:12;101062.25;;;9.74;81.06
63115;BME280;49208;50.874;6.466;2023-02-16T18:18:38;101065.81;;;9.73;81.26
63115;BME280;49208;50.874;6.466;2023-02-16T18:21:04;101066.72;;;9.74;81.58
63115;BME280;49208;50.874;6.466;2023-02-16T18:23:30;101074.72;;;9.72;82.73
63115;BME280;49208;50.874;6.466;2023-02-16T18:25:55;101077.41;;;9.69;82.79
63115;BME280;49208;50.874;6.466;2023-02-16T18:28:25;101071.38;;;9.62;83.22
63115;BME280;49208;50.874;6.466;2023-02-16T18:30:51;101072.41;;;9.57;84.01
63115;BME280;49208;50.874;6.466;2023-02-16T18:33:18;101067.16;;;9.52;84.29
63115;BME280;49208;50.874;6.466;2023-02-16T18:35:45;101069.16;;;9.42;83.82
63115;BME280;49208;50.874;6.466;2023-02-16T18:38:11;101064.81;;;9.38;83.13
63115;BME280;49208;50.874;6.466;2023-02-16T18:40:36;101070.25;;;9.32;83.18
63115;BME280;49208;50.874;6.466;2023-02-16T18:43:03;101069.44;;;9.27;82.08
63115;BME280;49208;50.874;6.466;2023-02-16T18:45:28;101073.94;;;9.23;81.58
63115;BME280;49208;50.874;6.466;2023-02-16T18:47:54;101077.53;;;9.22;80.76
63115;BME280;49208;50.874;6.466;2023-02-16T18:50:19;101070.44;;;9.21;81.08
63115;BME280;49208;50.874;6.466;2023-02-16T18:52:45;101078.41;;;9.21;80.68
63115;BME280;49208;50.874;6.466;2023-02-16T18:55:11;101078.50;;;9.17;80.47
63115;BME280;49208;50.874;6.466;2023-02-16T18:57:37;101087.38;;;9.17;80.52
63115;BME280;49208;50.874;6.466;2023-02-16T19:00:07;101088.25;;;9.16;81.33
63115;BME280;49208;50.874;6.466;2023-02-16T19:02:33;101086.53;;;9.15;81.83
63115;BME280;49208;50.874;6.466;2023-02-16T19:04:58;101083.91;;;9.12;82.96
63115;BME280;49208;50.874;6.466;2023-02-16T19:07:24;101084.00;;;9.07;84.81
63115;BME280;49208;50.874;6.466;2023-02-16T19:09:49;101089.41;;;9.03;86.13
63115;BME280;49208;50.874;6.466;2023-02-16T19:12:15;101091.25;;;8.98;87.99
63115;BME280;49208;50.874;6.466;2023-02-16T19:14:40;101086.94;;;8.92;89.61
63115;BME280;49208;50.874;6.466;2023-02-16T19:17:06;101086.25;;;8.82;90.42
63115;BME280;49208;50.874;6.466;2023-02-16T19:19:31;101081.06;;;8.76;90.47
63115;BME280;49208;50.874;6.466;2023-02-16T19:21:57;101091.75;;;8.72;92.02
63115;BME280;49208;50.874;6.466;2023-02-16T19:24:22;101069.69;;;8.68;93.47
63115;BME280;49208;50.874;6.466;2023-02-16T19:26:48;101066.28;;;8.61;94.04
63115;BME280;49208;50.874;6.466;2023-02-16T19:29:14;101070.75;;;8.58;95.16
63115;BME280;49208;50.874;6.466;2023-02-16T19:31:39;101075.28;;;8.51;95.91
63115;BME280;49208;50.874;6.466;2023-02-16T19:34:05;101072.69;;;8.46;96.77
63115;BME280;49208;50.874;6.466;2023-02-16T19:36:31;101064.78;;;8.45;97.89
63115;BME280;49208;50.874;6.466;2023-02-16T19:38:58;101071.03;;;8.41;98.20
63115;BME280;49208;50.874;6.466;2023-02-16T19:41:27;101065.75;;;8.38;98.55
63115;BME280;49208;50.874;6.466;2023-02-16T19:43:52;101058.72;;;8.34;98.95
63115;BME280;49208;50.874;6.466;2023-02-16T19:46:18;101062.31;;;8.31;100.00
63115;BME280;49208;50.874;6.466;2023-02-16T19:48:44;101067.66;;;8.29;100.00
63115;BME280;49208;50.874;6.466;2023-02-16T19:51:11;101060.59;;;8.28;100.00
63115;BME280;49208;50.874;6.466;2023-02-16T19:53:37;101074.72;;;8.29;100.00
63115;BME280;49208;50.874;6.466;2023-02-16T19:56:04;101061.41;;;8.32;100.00
63115;BME280;49208;50.874;6.466;2023-02-16T19:58:30;101058.72;;;8.34;100.00
63115;BME280;49208;50.874;6.466;2023-02-16T20:00:55;101065.75;;;8.38;100.00
63115;BME280;49208;50.874;6.466;2023-02-16T20:03:21;101068.41;;;8.36;100.00
63115;BME280;49208;50.874;6.466;2023-02-16T20:05:46;101056.94;;;8.36;100.00
63115;BME280;49208;50.874;6.466;2023-02-16T20:08:11;101057.78;;;8.36;100.00
63115;BME280;49208;50.874;6.466;2023-02-16T20:10:41;101057.69;;;8.45;100.00
63115;BME280;49208;50.874;6.466;2023-02-16T20:13:08;101046.13;;;8.51;100.00
63115;BME280;49208;50.874;6.466;2023-02-16T20:15:33;101042.50;;;8.55;100.00
63115;BME280;49208;50.874;6.466;2023-02-16T20:17:59;101036.25;;;8.58;100.00
63115;BME280;49208;50.874;6.466;2023-02-16T20:20:24;101030.09;;;8.57;100.00
63115;BME280;49208;50.874;6.466;2023-02-16T20:22:50;101040.59;;;8.62;100.00
63115;BME280;49208;50.874;6.466;2023-02-16T20:25:15;101036.16;;;8.62;100.00
63115;BME280;49208;50.874;6.466;2023-02-16T20:27:41;101038.81;;;8.64;100.00
63115;BME280;49208;50.874;6.466;2023-02-16T20:30:13;101036.16;;;8.62;100.00
63115;BME280;49208;50.874;6.466;2023-02-16T20:32:41;101043.19;;;8.65;100.00
63115;BME280;49208;50.874;6.466;2023-02-16T20:35:06;101038.72;;;8.68;100.00
63115;BME280;49208;50.874;6.466;2023-02-16T20:37:33;101038.63;;;8.73;100.00
63115;BME280;49208;50.874;6.466;2023-02-16T20:39:58;101034.06;;;8.80;100.00
63115;BME280;49208;50.874;6.466;2023-02-16T20:42:25;101030.50;;;8.82;100.00
63115;BME280;49208;50.874;6.466;2023-02-16T20:44:50;101025.13;;;8.85;100.00
63115;BME280;49208;50.874;6.466;2023-02-16T20:47:16;101015.34;;;8.87;100.00
63115;BME280;49208;50.874;6.466;2023-02-16T20:49:41;101018.81;;;8.91;100.00
63115;BME280;49208;50.874;6.466;2023-02-16T20:52:08;101015.31;;;8.90;100.00
63115;BME280;49208;50.874;6.466;2023-02-16T20:54:35;101020.53;;;8.94;100.00
63115;BME280;49208;50.874;6.466;2023-02-16T20:57:01;101022.31;;;8.93;100.00
63115;BME280;49208;50.874;6.466;2023-02-16T20:59:26;101022.31;;;8.95;100.00
63115;BME280;49208;50.874;6.466;2023-02-16T21:01:52;101019.59;;;8.96;100.00
63115;BME280;49208;50.874;6.466;2023-02-16T21:04:18;101016.91;;;8.99;99.96
63115;BME280;49208;50.874;6.466;2023-02-16T21:06:43;101013.38;;;8.99;100.00
63115;BME280;49208;50.874;6.466;2023-02-16T21:09:09;101016.91;;;8.98;100.00
63115;BME280;49208;50.874;6.466;2023-02-16T21:11:36;101013.41;;;8.97;100.00
63115;BME280;49208;50.874;6.466;2023-02-16T21:14:03;101015.97;;;9.00;100.00
63115;BME280;49208;50.874;6.466;2023-02-16T21:16:29;101006.25;;;9.01;100.00
63115;BME280;49208;50.874;6.466;2023-02-16T21:18:54;101016.88;;;9.01;100.00
63115;BME280;49208;50.874;6.466;2023-02-16T21:21:20;101002.66;;;9.03;100.00
63115;BME280;49208;50.874;6.466;2023-02-16T21:23:48;101001.72;;;9.06;100.00
63115;BME280;49208;50.874;6.466;2023-02-16T21:26:15;101000.75;;;9.08;99.97
63115;BME280;49208;50.874;6.466;2023-02-16T21:28:41;100999.00;;;9.09;99.96
63115;BME280;49208;50.874;6.466;2023-02-16T21:31:09;101000.72;;;9.12;100.00
63115;BME280;49208;50.874;6.466;2023-02-16T21:33:36;101004.13;;;9.17;99.97
63115;BME280;49208;50.874;6.466;2023-02-16T21:36:06;100993.38;;;9.23;99.55
63115;BME280;49208;50.874;6.466;2023-02-16T21:38:33;100996.03;;;9.24;99.23
63115;BME280;49208;50.874;6.466;2023-02-16T21:41:07;101000.47;;;9.22;99.72
63115;BME280;49208;50.874;6.466;2023-02-16T21:44:09;100999.63;;;9.22;99.72
63115;BME280;49208;50.874;6.466;2023-02-16T21:46:36;101007.59;;;9.22;99.53
63115;BME280;49208;50.874;6.466;2023-02-16T21:49:03;101002.19;;;9.25;99.52
63115;BME280;49208;50.874;6.466;2023-02-16T21:51:30;101002.16;;;9.26;99.45
63115;BME280;49208;50.874;6.466;2023-02-16T21:53:56;101004.84;;;9.25;99.53
63115;BME280;49208;50.874;6.466;2023-02-16T21:58:53;101003.00;;;9.28;99.45
63115;BME280;49208;50.874;6.466;2023-02-16T22:01:21;101003.00;;;9.30;99.80
63115;BME280;49208;50.874;6.466;2023-02-16T22:03:46;100991.47;;;9.29;99.90
63115;BME280;49208;50.874;6.466;2023-02-16T22:06:12;100994.97;;;9.31;99.76
63115;BME280;49208;50.874;6.466;2023-02-16T22:08:37;100990.56;;;9.32;99.73
63115;BME280;49208;50.874;6.466;2023-02-16T22:11:08;100983.41;;;9.34;99.76
63115;BME280;49208;50.874;6.466;2023-02-16T22:13:34;100983.38;;;9.36;99.69
63115;BME280;49208;50.874;6.466;2023-02-16T22:15:59;100983.38;;;9.36;99.76
63115;BME280;49208;50.874;6.466;2023-02-16T22:18:25;100980.56;;;9.42;99.19